createdAt,value
2024-02-07T00:02:32.352Z,8.50
2024-02-07T00:05:33.566Z,9.20
2024-02-07T00:08:34.881Z,9.50
2024-02-07T00:11:35.377Z,8.90
2024-02-07T00:14:36.395Z,9.30
2024-02-07T00:17:37.441Z,9.70
2024-02-07T00:20:38.390Z,10.60
2024-02-07T00:23:39.452Z,10.90
2024-02-07T00:26:40.414Z,11.20
2024-02-07T00:29:41.386Z,12.70
2024-02-07T00:32:42.462Z,11.20
2024-02-07T00:35:43.466Z,9.80
2024-02-07T00:38:44.432Z,11.60
2024-02-07T00:41:45.420Z,10.60
2024-02-07T00:44:46.461Z,9.30
2024-02-07T00:47:47.486Z,9.80
2024-02-07T00:50:48.468Z,9.40
2024-02-07T00:53:49.486Z,9.40
2024-02-07T00:56:50.457Z,9.20
2024-02-07T00:59:51.495Z,8.10
2024-02-07T01:02:52.474Z,8.50
2024-02-07T01:05:53.581Z,8.40
2024-02-07T01:08:54.525Z,8.10
2024-02-07T01:11:55.514Z,7.50
2024-02-07T01:14:56.514Z,7.90
2024-02-07T01:17:57.539Z,6.90
2024-02-07T01:20:58.564Z,8.30
2024-02-07T01:24:00.558Z,6.00
2024-02-07T01:27:01.525Z,7.20
2024-02-07T01:30:03.527Z,5.90
2024-02-07T01:33:04.668Z,6.80
2024-02-07T01:36:06.540Z,6.40
2024-02-07T01:39:09.531Z,6.00
2024-02-07T01:42:10.550Z,6.00
2024-02-07T01:45:40.593Z,4.90
2024-02-07T01:48:42.649Z,5.50
2024-02-07T01:51:43.585Z,5.10
2024-02-07T01:54:45.582Z,5.90
2024-02-07T01:57:47.594Z,6.10
2024-02-07T02:00:50.629Z,5.60
2024-02-07T02:03:51.688Z,5.10
2024-02-07T02:06:52.625Z,5.40
2024-02-07T02:09:53.649Z,5.60
2024-02-07T02:12:56.602Z,6.00
2024-02-07T02:16:00.630Z,5.80
2024-02-07T02:19:02.626Z,5.80
2024-02-07T02:22:20.702Z,5.30
2024-02-07T02:25:55.703Z,5.40
2024-02-07T02:29:18.666Z,6.90
2024-02-07T02:32:22.679Z,6.80
2024-02-07T02:35:24.728Z,5.90
2024-02-07T02:38:26.904Z,7.60
2024-02-07T02:41:27.702Z,7.50
2024-02-07T02:44:28.976Z,7.30
2024-02-07T02:47:29.699Z,7.00
2024-02-07T02:50:33.710Z,6.60
2024-02-07T02:53:34.682Z,7.00
2024-02-07T02:56:35.703Z,7.10
2024-02-07T02:59:37.699Z,7.70
2024-02-07T03:02:38.747Z,6.90
2024-02-07T03:05:53.858Z,7.30
2024-02-07T03:09:01.730Z,6.60
2024-02-07T03:12:02.728Z,6.80
2024-02-07T03:15:04.785Z,7.40
2024-02-07T03:18:06.252Z,6.60
2024-02-07T03:21:06.768Z,6.70
2024-02-07T03:24:07.766Z,7.80
2024-02-07T03:27:08.792Z,7.50
2024-02-07T03:30:09.795Z,7.10
2024-02-07T03:33:10.853Z,6.80
2024-02-07T03:36:11.804Z,6.50
2024-02-07T03:39:17.824Z,7.30
2024-02-07T03:42:18.784Z,7.30
2024-02-07T03:45:19.811Z,6.80
2024-02-07T03:48:20.884Z,6.40
2024-02-07T03:51:23.797Z,7.30
2024-02-07T03:54:24.831Z,5.50
2024-02-07T03:57:28.830Z,7.40
2024-02-07T04:00:29.857Z,6.80
2024-02-07T04:03:30.842Z,6.50
2024-02-07T04:06:33.007Z,7.40
2024-02-07T04:09:33.939Z,7.00
2024-02-07T04:12:34.878Z,6.70
2024-02-07T04:15:53.866Z,6.40
2024-02-07T04:19:13.996Z,7.00
2024-02-07T04:22:33.936Z,7.20
2024-02-07T04:25:54.938Z,6.90
2024-02-07T04:29:14.900Z,7.00
2024-02-07T04:32:33.975Z,7.50
2024-02-07T04:35:53.893Z,8.30
2024-02-07T04:39:13.947Z,10.10
2024-02-07T04:42:33.915Z,8.20
2024-02-07T04:45:53.934Z,8.20
2024-02-07T04:49:14.071Z,7.20
2024-02-07T04:52:34.005Z,8.30
2024-02-07T04:55:54.057Z,8.90
2024-02-07T04:59:13.996Z,9.10
2024-02-07T05:02:34.003Z,8.70
2024-02-07T05:05:54.019Z,8.90
2024-02-07T05:09:13.961Z,8.50
2024-02-07T05:12:33.002Z,8.60
2024-02-07T05:15:33.995Z,8.20
2024-02-07T05:18:36.053Z,8.40
2024-02-07T05:21:38.008Z,8.60
2024-02-07T05:24:39.009Z,7.60
2024-02-07T05:27:40.033Z,7.60
2024-02-07T05:30:41.052Z,8.30
2024-02-07T05:33:42.282Z,8.00
2024-02-07T05:36:44.059Z,8.00
2024-02-07T05:39:46.040Z,6.40
2024-02-07T05:42:47.044Z,7.10
2024-02-07T05:45:48.063Z,11.30
2024-02-07T05:48:51.174Z,8.00
2024-02-07T05:52:05.085Z,6.20
2024-02-07T05:55:06.089Z,8.40
2024-02-07T05:58:07.090Z,7.10
2024-02-07T06:01:08.103Z,6.40
2024-02-07T06:04:12.189Z,6.60
2024-02-07T06:07:13.156Z,6.20
2024-02-07T06:10:15.136Z,6.60
2024-02-07T06:13:16.161Z,6.90
2024-02-07T06:16:17.157Z,7.40
2024-02-07T06:19:18.186Z,10.20
2024-02-07T06:22:20.137Z,7.20
2024-02-07T06:25:22.220Z,6.90
2024-02-07T06:28:23.158Z,7.40
2024-02-07T06:31:24.169Z,7.10
2024-02-07T06:34:25.377Z,7.10
2024-02-07T06:37:26.251Z,7.30
2024-02-07T06:40:27.187Z,7.10
2024-02-07T06:43:29.174Z,7.70
2024-02-07T06:46:32.233Z,7.70
2024-02-07T06:49:33.207Z,7.30
2024-02-07T06:52:34.206Z,10.30
2024-02-07T06:55:35.234Z,8.00
2024-02-07T06:58:38.242Z,7.00
2024-02-07T07:01:39.236Z,7.50
2024-02-07T07:04:40.235Z,6.70
2024-02-07T07:07:41.212Z,6.80
2024-02-07T07:10:35.536Z,7.00
2024-02-07T07:13:36.254Z,6.50
2024-02-07T07:16:37.318Z,5.70
2024-02-07T07:19:38.254Z,6.10
2024-02-07T07:22:39.294Z,5.80
2024-02-07T07:25:40.295Z,6.20
2024-02-07T07:28:41.299Z,8.90
2024-02-07T07:31:43.286Z,10.20
2024-02-07T07:34:44.365Z,32.90
2024-02-07T07:37:45.288Z,8.60
2024-02-07T07:40:47.318Z,8.00
2024-02-07T07:43:48.324Z,8.10
2024-02-07T07:46:49.377Z,7.50
2024-02-07T07:49:50.348Z,7.60
2024-02-07T07:52:51.330Z,8.00
2024-02-07T07:55:52.373Z,8.40
2024-02-07T07:58:56.380Z,7.00
2024-02-07T08:01:57.395Z,17.30
2024-02-07T08:04:58.396Z,9.20
2024-02-07T08:07:59.408Z,8.50
2024-02-07T08:11:00.492Z,5.40
2024-02-07T08:14:01.598Z,5.60
2024-02-07T08:17:02.406Z,6.10
2024-02-07T08:20:03.429Z,5.10
2024-02-07T08:23:04.395Z,4.90
2024-02-07T08:26:05.426Z,4.40
2024-02-07T08:29:06.420Z,9.70
2024-02-07T08:32:07.480Z,4.30
2024-02-07T08:35:08.578Z,4.50
2024-02-07T08:38:09.465Z,4.00
2024-02-07T08:41:10.620Z,3.30
2024-02-07T08:44:11.406Z,3.40
2024-02-07T08:47:14.628Z,4.20
2024-02-07T08:50:18.462Z,3.30
2024-02-07T08:53:21.596Z,3.50
2024-02-07T08:56:23.430Z,9.60
2024-02-07T08:59:24.488Z,3.30
2024-02-07T09:02:26.455Z,3.30
2024-02-07T09:05:31.616Z,3.90
2024-02-07T09:08:34.717Z,3.70
2024-02-07T09:11:39.610Z,3.40
2024-02-07T09:14:47.477Z,3.20
2024-02-07T09:17:48.660Z,3.40
2024-02-07T09:20:49.506Z,3.70
2024-02-07T09:23:57.501Z,3.40
2024-02-07T09:27:01.510Z,3.30
2024-02-07T09:30:11.054Z,3.70
2024-02-07T09:33:13.619Z,3.50
2024-02-07T09:36:14.883Z,3.70
2024-02-07T09:39:15.596Z,4.00
2024-02-07T09:42:22.912Z,4.50
2024-02-07T09:45:33.577Z,3.20
2024-02-07T09:48:38.636Z,3.80
2024-02-07T09:51:39.543Z,3.30
2024-02-07T09:54:41.573Z,3.40
2024-02-07T09:57:43.578Z,3.10
2024-02-07T10:00:37.704Z,4.20
2024-02-07T10:03:39.707Z,3.00
2024-02-07T10:06:40.714Z,2.60
2024-02-07T10:09:41.574Z,2.00
2024-02-07T10:12:42.605Z,2.80
2024-02-07T10:15:46.051Z,2.60
2024-02-07T10:18:48.661Z,2.60
2024-02-07T10:21:51.692Z,2.60
2024-02-07T10:24:56.302Z,2.50
2024-02-07T10:27:59.656Z,2.60
2024-02-07T10:31:14.673Z,2.40
2024-02-07T10:34:15.813Z,2.20
2024-02-07T10:37:16.743Z,2.90
2024-02-07T10:40:18.714Z,2.70
2024-02-07T10:43:19.720Z,3.00
2024-02-07T10:46:23.727Z,2.60
2024-02-07T10:49:25.841Z,2.40
2024-02-07T10:52:27.710Z,2.70
2024-02-07T10:55:31.737Z,2.70
2024-02-07T10:58:36.719Z,2.10
2024-02-07T11:01:38.739Z,2.40
2024-02-07T11:04:41.980Z,3.30
2024-02-07T11:07:54.593Z,2.10
2024-02-07T11:10:56.880Z,2.40
2024-02-07T11:14:00.934Z,2.70
2024-02-07T11:17:01.937Z,1.80
2024-02-07T11:20:05.288Z,2.30
2024-02-07T11:23:07.102Z,2.90
2024-02-07T11:26:09.163Z,2.40
2024-02-07T11:29:10.843Z,2.50
2024-02-07T11:32:04.886Z,2.50
2024-02-07T11:35:06.839Z,2.50
2024-02-07T11:38:07.816Z,2.90
2024-02-07T11:41:18.857Z,2.30
2024-02-07T11:44:19.781Z,2.40
2024-02-07T11:47:21.898Z,1.80
2024-02-07T11:50:26.821Z,2.00
2024-02-07T11:53:40.852Z,2.20
2024-02-07T11:56:44.826Z,1.90
2024-02-07T11:59:48.984Z,1.80
2024-02-07T12:02:49.955Z,1.90
2024-02-07T12:05:52.078Z,2.30
2024-02-07T12:08:56.898Z,2.20
2024-02-07T12:12:00.782Z,1.40
2024-02-07T12:15:05.596Z,2.60
2024-02-07T12:18:14.880Z,2.80
2024-02-07T12:21:23.432Z,3.10
2024-02-07T12:24:28.977Z,2.70
2024-02-07T12:27:30.033Z,2.10
2024-02-07T12:30:30.921Z,2.00
2024-02-07T12:33:32.036Z,4.40
2024-02-07T12:36:36.910Z,4.00
2024-02-07T12:39:37.908Z,5.30
2024-02-07T12:42:38.913Z,4.70
2024-02-07T12:45:40.893Z,4.10
2024-02-07T12:48:43.007Z,3.70
2024-02-07T12:51:45.918Z,3.00
2024-02-07T12:54:46.953Z,3.00
2024-02-07T12:57:51.044Z,4.60
2024-02-07T13:00:51.964Z,5.50
2024-02-07T13:03:53.012Z,5.00
2024-02-07T13:06:55.031Z,4.80
2024-02-07T13:09:55.962Z,3.70
2024-02-07T13:12:56.998Z,4.10
2024-02-07T13:15:57.964Z,4.70
2024-02-07T13:19:01.026Z,4.30
2024-02-07T13:22:02.013Z,5.50
2024-02-07T13:25:02.982Z,4.00
2024-02-07T13:28:04.010Z,5.30
2024-02-07T13:31:05.052Z,3.30
2024-02-07T13:34:06.063Z,4.60
2024-02-07T13:37:07.173Z,10.70
2024-02-07T13:40:09.041Z,17.80
2024-02-07T13:43:12.081Z,11.30
2024-02-07T13:46:14.128Z,17.20
2024-02-07T13:49:17.153Z,13.10
2024-02-07T13:52:18.124Z,13.70
2024-02-07T13:55:12.241Z,19.50
2024-02-07T13:58:14.292Z,12.20
2024-02-07T14:01:17.172Z,7.80
2024-02-07T14:04:18.245Z,11.00
2024-02-07T14:07:20.153Z,6.50
2024-02-07T14:10:24.093Z,8.50
2024-02-07T14:13:26.624Z,13.10
2024-02-07T14:16:28.243Z,19.30
2024-02-07T14:19:29.165Z,5.80
2024-02-07T14:22:30.119Z,6.00
2024-02-07T14:25:31.290Z,7.40
2024-02-07T14:28:32.187Z,11.30
2024-02-07T14:31:33.186Z,8.20
2024-02-07T14:34:34.336Z,5.50
2024-02-07T14:37:36.175Z,6.70
2024-02-07T14:40:37.221Z,5.90
2024-02-07T14:43:38.203Z,4.20
2024-02-07T14:46:39.300Z,4.20
2024-02-07T14:49:40.411Z,4.80
2024-02-07T14:52:41.215Z,5.00
2024-02-07T14:55:42.211Z,5.50
2024-02-07T14:58:43.325Z,4.60
2024-02-07T15:01:44.226Z,3.50
2024-02-07T15:04:45.335Z,3.60
2024-02-07T15:07:46.221Z,4.20
2024-02-07T15:10:47.277Z,3.50
2024-02-07T15:13:48.240Z,12.00
2024-02-07T15:16:49.250Z,4.20
2024-02-07T15:19:51.285Z,3.50
2024-02-07T15:22:52.294Z,3.10
2024-02-07T15:25:58.336Z,3.20
2024-02-07T15:28:59.338Z,3.00
2024-02-07T15:32:00.529Z,3.30
2024-02-07T15:35:02.362Z,3.50
2024-02-07T15:38:03.431Z,3.20
2024-02-07T15:41:04.373Z,3.40
2024-02-07T15:44:05.348Z,3.90
2024-02-07T15:47:06.345Z,4.20
2024-02-07T15:50:07.660Z,2.90
2024-02-07T15:53:08.307Z,4.00
2024-02-07T15:56:09.373Z,3.00
2024-02-07T15:59:10.341Z,3.30
2024-02-07T16:02:11.442Z,3.50
2024-02-07T16:05:13.747Z,4.20
2024-02-07T16:08:18.398Z,3.30
2024-02-07T16:11:19.371Z,3.10
2024-02-07T16:14:21.341Z,2.80
2024-02-07T16:17:22.341Z,4.00
2024-02-07T16:20:16.560Z,4.30
2024-02-07T16:23:17.383Z,3.50
2024-02-07T16:26:18.388Z,5.60
2024-02-07T16:29:19.420Z,4.00
2024-02-07T16:32:20.426Z,4.50
2024-02-07T16:35:21.502Z,4.00
2024-02-07T16:38:22.387Z,4.00
2024-02-07T16:41:23.480Z,5.60
2024-02-07T16:44:24.467Z,5.80
2024-02-07T16:47:25.450Z,7.20
2024-02-07T16:50:27.504Z,6.80
2024-02-07T16:53:28.456Z,12.40
2024-02-07T16:56:30.413Z,7.00
2024-02-07T16:59:32.435Z,5.30
2024-02-07T17:02:33.485Z,6.30
2024-02-07T17:05:35.510Z,6.20
2024-02-07T17:08:38.493Z,6.00
2024-02-07T17:11:39.587Z,6.10
2024-02-07T17:14:40.517Z,6.30
2024-02-07T17:17:41.552Z,5.40
2024-02-07T17:20:42.493Z,5.00
2024-02-07T17:23:44.530Z,5.40
2024-02-07T17:26:47.519Z,6.20
2024-02-07T17:29:55.552Z,5.30
2024-02-07T17:32:59.593Z,4.50
2024-02-07T17:36:01.528Z,5.60
2024-02-07T17:39:02.516Z,4.20
2024-02-07T17:42:03.544Z,3.60
2024-02-07T17:45:04.535Z,6.10
2024-02-07T17:48:05.663Z,4.80
2024-02-07T17:51:06.595Z,7.00
2024-02-07T17:54:11.573Z,6.70
2024-02-07T17:57:12.593Z,7.00
2024-02-07T18:00:13.580Z,5.80
2024-02-07T18:03:14.577Z,4.40
2024-02-07T18:06:15.857Z,6.00
2024-02-07T18:09:16.632Z,6.50
2024-02-07T18:12:18.665Z,6.20
2024-02-07T18:15:19.618Z,7.10
2024-02-07T18:18:20.669Z,6.30
2024-02-07T18:21:21.623Z,6.70
2024-02-07T18:24:24.629Z,5.60
2024-02-07T18:27:25.653Z,6.70
2024-02-07T18:30:27.632Z,6.10
2024-02-07T18:33:21.625Z,6.40
2024-02-07T18:36:02.797Z,6.00
2024-02-07T18:38:50.665Z,6.30
2024-02-07T18:41:38.671Z,21.10
2024-02-07T18:44:39.635Z,20.50
2024-02-07T18:47:40.890Z,14.20
2024-02-07T18:50:41.675Z,8.20
2024-02-07T18:53:42.669Z,12.80
2024-02-07T18:56:44.680Z,7.30
2024-02-07T18:59:45.699Z,18.10
2024-02-07T19:02:46.694Z,7.40
2024-02-07T19:05:47.883Z,10.40
2024-02-07T19:08:54.708Z,14.40
2024-02-07T19:12:00.748Z,12.50
2024-02-07T19:15:01.722Z,24.10
2024-02-07T19:18:02.869Z,24.10
2024-02-07T19:21:03.748Z,14.60
2024-02-07T19:24:04.736Z,8.00
2024-02-07T19:27:05.752Z,8.10
2024-02-07T19:30:06.733Z,8.20
2024-02-07T19:33:07.953Z,8.50
2024-02-07T19:36:11.972Z,13.00
2024-02-07T19:39:13.212Z,14.10
2024-02-07T19:42:13.857Z,17.90
2024-02-07T19:45:14.784Z,11.90
2024-02-07T19:48:15.899Z,8.20
2024-02-07T19:51:23.837Z,7.70
2024-02-07T19:54:24.812Z,7.90
2024-02-07T19:57:26.829Z,9.00
2024-02-07T20:00:27.882Z,8.10
2024-02-07T20:03:28.981Z,8.40
2024-02-07T20:06:34.871Z,10.00
2024-02-07T20:09:35.869Z,8.50
2024-02-07T20:12:36.852Z,9.00
2024-02-07T20:15:37.837Z,8.10
2024-02-07T20:18:38.889Z,9.30
2024-02-07T20:21:39.849Z,7.40
2024-02-07T20:24:41.861Z,7.90
2024-02-07T20:27:42.852Z,6.80
2024-02-07T20:30:44.903Z,7.10
2024-02-07T20:33:45.960Z,8.70
2024-02-07T20:36:46.870Z,7.80
2024-02-07T20:39:47.948Z,8.80
2024-02-07T20:42:49.931Z,7.90
2024-02-07T20:45:53.919Z,8.30
2024-02-07T20:48:54.980Z,8.00
2024-02-07T20:51:58.902Z,8.50
2024-02-07T20:54:59.914Z,7.80
2024-02-07T20:58:02.922Z,8.70
2024-02-07T21:01:03.958Z,7.50
2024-02-07T21:04:05.030Z,7.50
2024-02-07T21:07:06.981Z,9.70
2024-02-07T21:10:07.962Z,7.80
2024-02-07T21:13:08.979Z,8.50
2024-02-07T21:16:09.991Z,7.80
2024-02-07T21:19:11.181Z,8.80
2024-02-07T21:22:16.993Z,8.20
2024-02-07T21:25:17.998Z,8.70
2024-02-07T21:28:19.069Z,8.70
2024-02-07T21:31:20.042Z,8.30
2024-02-07T21:34:21.063Z,7.50
2024-02-07T21:37:22.057Z,6.10
2024-02-07T21:40:23.091Z,7.70
2024-02-07T21:43:24.097Z,8.00
2024-02-07T21:46:25.060Z,8.50
2024-02-07T21:49:26.053Z,8.60
2024-02-07T21:52:27.091Z,7.60
2024-02-07T21:55:28.057Z,8.00
2024-02-07T21:58:29.082Z,7.90
2024-02-07T22:01:31.116Z,6.90
2024-02-07T22:04:33.202Z,7.50
2024-02-07T22:07:34.269Z,7.80
2024-02-07T22:10:35.090Z,7.00
2024-02-07T22:13:36.120Z,6.70
2024-02-07T22:16:38.105Z,7.10
2024-02-07T22:19:39.218Z,8.00
2024-02-07T22:22:40.143Z,7.20
2024-02-07T22:25:42.151Z,7.40
2024-02-07T22:28:43.171Z,7.90
2024-02-07T22:31:47.127Z,8.80
2024-02-07T22:34:48.150Z,9.00
2024-02-07T22:37:49.159Z,8.10
2024-02-07T22:40:50.224Z,8.50
2024-02-07T22:43:51.191Z,7.70
2024-02-07T22:47:02.297Z,7.50
2024-02-07T22:50:03.387Z,6.50
2024-02-07T22:53:04.343Z,9.00
2024-02-07T22:56:07.257Z,8.30
2024-02-07T22:59:08.378Z,7.90
2024-02-07T23:02:09.338Z,7.60
2024-02-07T23:05:10.247Z,8.20
2024-02-07T23:08:11.275Z,7.10
2024-02-07T23:11:13.240Z,8.50
2024-02-07T23:14:14.483Z,8.10
2024-02-07T23:17:15.258Z,7.90
2024-02-07T23:20:17.332Z,8.70
2024-02-07T23:23:18.233Z,7.40
2024-02-07T23:26:19.228Z,7.90
2024-02-07T23:29:20.239Z,7.20
2024-02-07T23:32:21.334Z,7.90
2024-02-07T23:35:22.412Z,6.90
2024-02-07T23:38:23.275Z,8.60
2024-02-07T23:41:24.255Z,7.70
2024-02-07T23:44:25.338Z,7.20
2024-02-07T23:47:26.327Z,7.20
2024-02-07T23:50:27.293Z,8.70
2024-02-07T23:53:28.291Z,8.20
2024-02-07T23:56:29.294Z,7.40
2024-02-07T23:59:30.297Z,7.60
